createdAt,value
2019-02-20T00:01:02.921Z,5.30
2019-02-20T00:03:32.533Z,5.30
2019-02-20T00:06:01.766Z,4.90
2019-02-20T00:08:30.959Z,4.63
2019-02-20T00:11:00.187Z,4.67
2019-02-20T00:13:29.366Z,4.90
2019-02-20T00:15:58.582Z,4.57
2019-02-20T00:18:27.795Z,4.40
2019-02-20T00:20:57.022Z,4.83
2019-02-20T00:23:26.317Z,4.10
2019-02-20T00:25:55.517Z,4.20
2019-02-20T00:28:24.739Z,4.57
2019-02-20T00:30:53.948Z,4.33
2019-02-20T00:33:23.138Z,4.50
2019-02-20T00:35:52.383Z,4.87
2019-02-20T00:38:21.606Z,4.37
2019-02-20T00:40:50.840Z,4.20
2019-02-20T00:43:20.058Z,3.73
2019-02-20T00:46:09.960Z,4.27
2019-02-20T00:48:57.143Z,4.27
2019-02-20T00:51:39.255Z,4.27
2019-02-20T00:54:09.386Z,4.43
2019-02-20T00:56:38.740Z,4.47
2019-02-20T00:59:07.960Z,3.40
2019-02-20T01:01:37.179Z,4.03
2019-02-20T01:04:06.704Z,3.97
2019-02-20T01:06:35.937Z,4.23
2019-02-20T01:09:06.339Z,3.93
2019-02-20T01:11:35.562Z,4.47
2019-02-20T01:14:04.786Z,4.07
2019-02-20T01:16:34.012Z,3.70
2019-02-20T01:19:03.222Z,3.67
2019-02-20T01:21:32.422Z,3.67
2019-02-20T01:24:01.687Z,3.90
2019-02-20T01:26:30.855Z,3.50
2019-02-20T01:29:00.069Z,3.70
2019-02-20T01:31:29.287Z,3.33
2019-02-20T01:33:58.510Z,3.70
2019-02-20T01:36:27.703Z,3.70
2019-02-20T01:38:56.964Z,3.83
2019-02-20T01:41:26.113Z,3.50
2019-02-20T01:43:55.322Z,3.30
2019-02-20T01:46:24.567Z,3.37
2019-02-20T01:48:53.721Z,3.20
2019-02-20T01:51:22.974Z,3.50
2019-02-20T01:53:52.165Z,2.90
2019-02-20T01:56:21.363Z,3.47
2019-02-20T01:58:50.651Z,3.40
2019-02-20T02:01:19.818Z,3.40
2019-02-20T02:03:49.045Z,3.47
2019-02-20T02:06:18.260Z,3.20
2019-02-20T02:08:47.448Z,2.90
2019-02-20T02:11:16.680Z,3.13
2019-02-20T02:13:45.882Z,3.30
2019-02-20T02:16:15.166Z,3.57
2019-02-20T02:18:44.403Z,3.73
2019-02-20T02:21:13.585Z,3.20
2019-02-20T02:23:42.862Z,3.17
2019-02-20T02:26:12.115Z,2.97
2019-02-20T02:28:41.298Z,3.23
2019-02-20T02:31:10.525Z,2.90
2019-02-20T02:33:39.718Z,3.20
2019-02-20T02:36:08.950Z,2.77
2019-02-20T02:38:38.169Z,2.83
2019-02-20T02:41:07.422Z,2.60
2019-02-20T02:43:36.634Z,3.30
2019-02-20T02:46:05.917Z,2.90
2019-02-20T02:48:35.068Z,3.13
2019-02-20T02:51:04.306Z,2.80
2019-02-20T02:53:33.523Z,3.00
2019-02-20T02:56:03.086Z,2.70
2019-02-20T02:58:32.661Z,3.00
2019-02-20T03:01:01.823Z,3.00
2019-02-20T03:03:31.050Z,2.80
2019-02-20T03:06:00.266Z,2.60
2019-02-20T03:08:29.474Z,2.53
2019-02-20T03:10:58.682Z,2.97
2019-02-20T03:13:27.898Z,2.90
2019-02-20T03:15:57.083Z,2.77
2019-02-20T03:18:26.301Z,3.07
2019-02-20T03:20:55.550Z,2.67
2019-02-20T03:23:24.763Z,2.83
2019-02-20T03:25:53.996Z,2.60
2019-02-20T03:28:23.211Z,2.40
2019-02-20T03:30:52.393Z,2.87
2019-02-20T03:33:21.615Z,2.43
2019-02-20T03:35:50.857Z,3.00
2019-02-20T03:38:29.902Z,2.50
2019-02-20T03:40:50.942Z,2.90
2019-02-20T03:43:20.189Z,2.60
2019-02-20T03:45:49.431Z,2.63
2019-02-20T03:48:18.947Z,2.60
2019-02-20T03:50:48.124Z,2.60
2019-02-20T03:53:17.380Z,2.87
2019-02-20T03:55:46.609Z,2.43
2019-02-20T03:58:16.150Z,2.30
2019-02-20T04:00:45.764Z,2.70
2019-02-20T04:03:14.896Z,2.53
2019-02-20T04:05:44.457Z,2.50
2019-02-20T04:08:13.657Z,2.47
2019-02-20T04:10:42.874Z,2.60
2019-02-20T04:13:12.082Z,2.80
2019-02-20T04:15:41.307Z,3.03
2019-02-20T04:18:10.984Z,2.70
2019-02-20T04:20:40.302Z,2.47
2019-02-20T04:23:09.514Z,2.73
2019-02-20T04:25:38.719Z,2.60
2019-02-20T04:28:07.891Z,2.50
2019-02-20T04:30:37.444Z,2.77
2019-02-20T04:33:06.662Z,2.90
2019-02-20T04:35:35.905Z,2.50
2019-02-20T04:38:05.128Z,2.83
2019-02-20T04:40:34.338Z,2.40
2019-02-20T04:43:03.904Z,2.43
2019-02-20T04:45:33.129Z,2.40
2019-02-20T04:48:02.326Z,2.83
2019-02-20T04:50:31.527Z,2.57
2019-02-20T04:53:01.120Z,2.40
2019-02-20T04:55:30.376Z,2.27
2019-02-20T04:58:15.604Z,2.73
2019-02-20T05:00:44.846Z,2.33
2019-02-20T05:03:14.390Z,2.80
2019-02-20T05:05:43.591Z,2.50
2019-02-20T05:08:12.806Z,2.30
2019-02-20T05:10:42.429Z,2.20
2019-02-20T05:13:11.588Z,2.10
2019-02-20T05:15:40.792Z,2.30
2019-02-20T05:18:09.943Z,2.47
2019-02-20T05:20:39.227Z,2.20
2019-02-20T05:23:08.391Z,2.37
2019-02-20T05:25:37.666Z,2.13
2019-02-20T05:28:06.890Z,2.30
2019-02-20T05:30:36.063Z,2.30
2019-02-20T05:33:05.301Z,2.20
2019-02-20T05:35:34.540Z,2.10
2019-02-20T05:38:03.747Z,1.90
2019-02-20T05:40:32.957Z,2.00
2019-02-20T05:43:02.167Z,2.00
2019-02-20T05:45:31.355Z,2.07
2019-02-20T05:48:00.568Z,2.47
2019-02-20T05:50:29.755Z,2.30
2019-02-20T05:52:58.968Z,2.60
2019-02-20T05:55:28.207Z,2.00
2019-02-20T05:57:57.382Z,2.10
2019-02-20T06:00:26.591Z,2.20
2019-02-20T06:02:55.786Z,2.20
2019-02-20T06:05:25.030Z,2.57
2019-02-20T06:07:54.306Z,2.50
2019-02-20T06:10:23.499Z,2.63
2019-02-20T06:12:52.750Z,2.73
2019-02-20T06:15:22.162Z,2.40
2019-02-20T06:17:51.328Z,2.60
2019-02-20T06:20:20.550Z,2.30
2019-02-20T06:22:49.716Z,2.37
2019-02-20T06:25:18.941Z,2.17
2019-02-20T06:27:48.131Z,2.50
2019-02-20T06:30:17.334Z,2.33
2019-02-20T06:32:46.549Z,3.87
2019-02-20T06:35:15.766Z,4.53
2019-02-20T06:37:44.954Z,4.90
2019-02-20T06:40:14.157Z,4.67
2019-02-20T06:42:43.346Z,5.60
2019-02-20T06:45:12.519Z,4.90
2019-02-20T06:47:41.814Z,4.67
2019-02-20T06:50:11.006Z,4.10
2019-02-20T06:52:40.270Z,4.50
2019-02-20T06:55:09.978Z,3.77
2019-02-20T06:57:39.173Z,3.50
2019-02-20T07:00:09.913Z,4.33
2019-02-20T07:02:39.085Z,4.47
2019-02-20T07:05:43.768Z,4.40
2019-02-20T07:09:06.521Z,5.83
2019-02-20T07:12:07.799Z,5.20
2019-02-20T07:15:26.452Z,4.53
2019-02-20T07:18:38.694Z,5.10
2019-02-20T07:21:31.650Z,5.40
2019-02-20T07:24:51.205Z,6.60
2019-02-20T07:27:39.927Z,6.10
2019-02-20T07:30:11.046Z,6.20
2019-02-20T07:32:40.258Z,6.47
2019-02-20T07:35:10.958Z,5.83
2019-02-20T07:37:40.183Z,6.10
2019-02-20T07:40:11.562Z,6.83
2019-02-20T07:42:40.755Z,6.33
2019-02-20T07:45:12.422Z,6.53
2019-02-20T07:47:41.661Z,7.00
2019-02-20T07:50:13.030Z,6.57
2019-02-20T07:52:42.280Z,6.33
2019-02-20T07:55:13.693Z,7.60
2019-02-20T07:57:42.350Z,7.33
2019-02-20T08:00:12.650Z,7.10
2019-02-20T08:02:41.823Z,6.50
2019-02-20T08:05:11.037Z,7.33
2019-02-20T08:07:40.284Z,7.33
2019-02-20T08:10:10.910Z,6.83
2019-02-20T08:12:40.143Z,5.87
2019-02-20T08:15:11.056Z,6.20
2019-02-20T08:17:40.273Z,6.47
2019-02-20T08:20:10.770Z,6.07
2019-02-20T08:22:39.955Z,6.00
2019-02-20T08:25:09.251Z,7.00
2019-02-20T08:27:38.493Z,8.93
2019-02-20T08:30:13.308Z,9.03
2019-02-20T08:32:42.572Z,8.23
2019-02-20T08:35:12.089Z,8.50
2019-02-20T08:37:41.353Z,10.03
2019-02-20T08:40:13.188Z,9.97
2019-02-20T08:42:42.392Z,10.00
2019-02-20T08:45:11.657Z,9.50
2019-02-20T08:47:40.908Z,9.90
2019-02-20T08:50:11.002Z,9.27
2019-02-20T08:52:40.211Z,9.97
2019-02-20T08:55:09.561Z,10.10
2019-02-20T08:57:42.226Z,10.57
2019-02-20T09:00:13.827Z,10.30
2019-02-20T09:02:43.041Z,10.73
2019-02-20T09:05:12.315Z,10.60
2019-02-20T09:07:41.558Z,10.13
2019-02-20T09:10:10.929Z,9.70
2019-02-20T09:12:40.127Z,9.50
2019-02-20T09:15:09.927Z,10.07
2019-02-20T09:17:39.085Z,11.40
2019-02-20T09:20:09.020Z,9.90
2019-02-20T09:22:39.551Z,9.40
2019-02-20T09:25:13.518Z,10.13
2019-02-20T09:27:40.997Z,9.43
2019-02-20T09:30:12.090Z,8.83
2019-02-20T09:32:41.643Z,8.93
2019-02-20T09:35:10.899Z,8.63
2019-02-20T09:37:40.126Z,8.07
2019-02-20T09:40:11.953Z,9.10
2019-02-20T09:42:42.009Z,9.33
2019-02-20T09:45:11.215Z,9.47
2019-02-20T09:47:40.445Z,10.50
2019-02-20T09:50:09.633Z,8.97
2019-02-20T09:52:38.861Z,9.70
2019-02-20T09:55:09.185Z,8.80
2019-02-20T09:57:38.738Z,9.70
2019-02-20T10:00:11.083Z,7.90
2019-02-20T10:02:40.299Z,14.97
2019-02-20T10:05:09.881Z,13.50
2019-02-20T10:07:39.126Z,12.83
2019-02-20T10:10:08.635Z,12.20
2019-02-20T10:12:37.856Z,11.80
2019-02-20T10:15:07.695Z,10.17
2019-02-20T10:17:36.914Z,11.53
2019-02-20T10:20:06.789Z,9.90
2019-02-20T10:22:36.072Z,9.10
2019-02-20T10:25:05.336Z,9.13
2019-02-20T10:27:34.553Z,8.70
2019-02-20T10:30:03.829Z,8.83
2019-02-20T10:32:34.236Z,7.90
2019-02-20T10:35:03.489Z,7.70
2019-02-20T10:37:32.729Z,8.27
2019-02-20T10:40:01.910Z,7.50
2019-02-20T10:42:31.134Z,8.53
2019-02-20T10:45:00.307Z,8.30
2019-02-20T10:47:29.877Z,9.03
2019-02-20T10:49:59.091Z,8.40
2019-02-20T10:52:28.303Z,7.80
2019-02-20T10:54:58.055Z,9.43
2019-02-20T10:57:27.507Z,9.63
2019-02-20T10:59:56.721Z,7.63
2019-02-20T11:02:26.039Z,7.73
2019-02-20T11:04:55.247Z,7.10
2019-02-20T11:07:24.486Z,7.70
2019-02-20T11:09:53.714Z,7.90
2019-02-20T11:12:22.927Z,8.20
2019-02-20T11:14:52.146Z,7.80
2019-02-20T11:17:21.339Z,7.60
2019-02-20T11:19:50.860Z,7.17
2019-02-20T11:22:20.697Z,7.83
2019-02-20T11:24:50.072Z,6.57
2019-02-20T11:27:19.525Z,7.17
2019-02-20T11:29:49.132Z,6.90
2019-02-20T11:32:18.319Z,6.97
2019-02-20T11:34:47.570Z,7.13
2019-02-20T11:37:16.762Z,6.77
2019-02-20T11:39:46.248Z,5.90
2019-02-20T11:42:15.486Z,6.80
2019-02-20T11:44:44.688Z,6.07
2019-02-20T11:47:13.926Z,5.90
2019-02-20T11:49:43.171Z,6.33
2019-02-20T11:52:12.394Z,7.03
2019-02-20T11:54:41.619Z,6.27
2019-02-20T11:57:10.804Z,5.97
2019-02-20T11:59:40.046Z,6.43
2019-02-20T12:02:09.265Z,6.10
2019-02-20T12:04:38.470Z,6.00
2019-02-20T12:07:07.706Z,5.67
2019-02-20T12:09:37.287Z,6.10
2019-02-20T12:12:06.530Z,5.43
2019-02-20T12:14:35.750Z,5.57
2019-02-20T12:17:04.961Z,5.63
2019-02-20T12:19:34.166Z,5.90
2019-02-20T12:22:03.382Z,5.47
2019-02-20T12:24:32.949Z,5.13
2019-02-20T12:27:02.406Z,5.67
2019-02-20T12:29:31.666Z,5.57
2019-02-20T12:32:00.871Z,4.73
2019-02-20T12:34:30.112Z,5.00
2019-02-20T12:36:59.324Z,5.20
2019-02-20T12:39:28.547Z,4.60
2019-02-20T12:41:57.842Z,4.33
2019-02-20T12:44:27.046Z,4.90
2019-02-20T12:46:56.324Z,6.40
2019-02-20T12:49:25.509Z,6.73
2019-02-20T12:51:54.779Z,5.53
2019-02-20T12:54:24.022Z,5.27
2019-02-20T12:56:53.227Z,6.07
2019-02-20T12:59:22.433Z,5.00
2019-02-20T13:01:51.676Z,5.60
2019-02-20T13:04:20.868Z,5.13
2019-02-20T13:06:59.191Z,5.57
2019-02-20T13:09:21.675Z,4.47
2019-02-20T13:11:50.867Z,5.13
2019-02-20T13:14:20.072Z,4.57
2019-02-20T13:16:49.275Z,4.90
2019-02-20T13:19:18.477Z,4.73
2019-02-20T13:21:47.687Z,4.37
2019-02-20T13:24:16.887Z,4.90
2019-02-20T13:26:52.883Z,4.90
2019-02-20T13:29:17.013Z,4.17
2019-02-20T13:31:46.238Z,4.70
2019-02-20T13:34:15.488Z,4.33
2019-02-20T13:36:44.731Z,4.57
2019-02-20T13:39:13.952Z,4.50
2019-02-20T13:41:44.451Z,4.70
2019-02-20T13:44:13.743Z,4.27
2019-02-20T13:46:43.014Z,4.57
2019-02-20T13:49:12.750Z,4.37
2019-02-20T13:51:41.934Z,4.40
2019-02-20T13:54:11.174Z,4.07
2019-02-20T13:56:40.370Z,4.17
2019-02-20T13:59:09.601Z,4.47
2019-02-20T14:01:38.855Z,4.53
2019-02-20T14:04:08.042Z,3.53
2019-02-20T14:06:37.273Z,4.50
2019-02-20T14:09:06.608Z,4.33
2019-02-20T14:11:36.129Z,3.43
2019-02-20T14:14:05.684Z,3.97
2019-02-20T14:16:34.857Z,3.57
2019-02-20T14:19:04.190Z,3.70
2019-02-20T14:21:33.888Z,3.40
2019-02-20T14:24:03.066Z,4.03
2019-02-20T14:26:32.325Z,3.83
2019-02-20T14:29:01.557Z,3.60
2019-02-20T14:31:30.770Z,4.00
2019-02-20T14:34:00.016Z,3.77
2019-02-20T14:36:29.701Z,3.67
2019-02-20T14:39:00.032Z,4.23
2019-02-20T14:41:29.238Z,3.33
2019-02-20T14:43:58.434Z,3.33
2019-02-20T14:46:27.648Z,3.70
2019-02-20T14:49:01.060Z,3.20
2019-02-20T14:51:30.659Z,3.57
2019-02-20T14:53:59.897Z,3.07
2019-02-20T14:56:29.084Z,3.63
2019-02-20T14:58:58.314Z,3.33
2019-02-20T15:01:27.537Z,3.60
2019-02-20T15:03:56.714Z,3.63
2019-02-20T15:06:26.539Z,3.77
2019-02-20T15:08:55.763Z,3.30
2019-02-20T15:11:24.934Z,3.23
2019-02-20T15:13:55.443Z,3.70
2019-02-20T15:16:24.934Z,3.00
2019-02-20T15:18:54.455Z,3.10
2019-02-20T15:21:23.987Z,3.40
2019-02-20T15:23:53.157Z,3.23
2019-02-20T15:26:22.381Z,3.37
2019-02-20T15:28:51.573Z,3.50
2019-02-20T15:31:21.427Z,3.40
2019-02-20T15:33:51.033Z,3.23
2019-02-20T15:36:20.190Z,3.43
2019-02-20T15:38:49.374Z,2.97
2019-02-20T15:41:18.897Z,3.03
2019-02-20T15:43:48.078Z,3.00
2019-02-20T15:46:17.293Z,2.50
2019-02-20T15:48:46.518Z,3.13
2019-02-20T15:51:15.709Z,2.73
2019-02-20T15:53:45.369Z,2.80
2019-02-20T15:56:14.522Z,2.83
2019-02-20T15:58:44.450Z,3.43
2019-02-20T16:01:13.681Z,2.70
2019-02-20T16:03:42.846Z,2.97
2019-02-20T16:06:12.080Z,3.70
2019-02-20T16:08:41.578Z,2.80
2019-02-20T16:11:10.780Z,3.03
2019-02-20T16:13:39.982Z,2.90
2019-02-20T16:16:09.463Z,2.77
2019-02-20T16:18:38.975Z,3.20
2019-02-20T16:21:08.229Z,3.20
2019-02-20T16:23:37.397Z,3.23
2019-02-20T16:26:06.641Z,2.80
2019-02-20T16:28:35.836Z,2.80
2019-02-20T16:31:05.015Z,3.20
2019-02-20T16:33:34.262Z,2.77
2019-02-20T16:36:03.409Z,3.43
2019-02-20T16:38:32.643Z,3.20
2019-02-20T16:41:02.051Z,2.70
2019-02-20T16:43:31.237Z,2.70
2019-02-20T16:46:00.449Z,3.07
2019-02-20T16:48:29.677Z,2.63
2019-02-20T16:50:58.854Z,3.27
2019-02-20T16:53:28.070Z,3.23
2019-02-20T16:55:57.864Z,2.63
2019-02-20T16:58:27.034Z,2.90
2019-02-20T17:00:56.284Z,3.23
2019-02-20T17:03:25.466Z,3.03
2019-02-20T17:05:54.720Z,3.13
2019-02-20T17:08:24.408Z,3.00
2019-02-20T17:10:53.967Z,3.93
2019-02-20T17:13:23.166Z,3.70
2019-02-20T17:15:52.359Z,3.20
2019-02-20T17:18:21.546Z,3.40
2019-02-20T17:20:50.769Z,3.63
2019-02-20T17:23:19.978Z,3.60
2019-02-20T17:25:49.198Z,3.43
2019-02-20T17:28:18.429Z,3.17
2019-02-20T17:30:48.990Z,3.33
2019-02-20T17:33:18.598Z,3.47
2019-02-20T17:35:47.812Z,3.50
2019-02-20T17:38:16.974Z,3.67
2019-02-20T17:40:46.180Z,3.20
2019-02-20T17:43:15.362Z,3.50
2019-02-20T17:45:44.605Z,3.70
2019-02-20T17:48:14.262Z,3.43
2019-02-20T17:50:43.465Z,3.40
2019-02-20T17:53:13.008Z,3.87
2019-02-20T17:55:42.795Z,3.33
2019-02-20T17:58:15.220Z,3.70
2019-02-20T18:00:43.221Z,3.37
2019-02-20T18:03:12.729Z,3.80
2019-02-20T18:06:01.021Z,3.63
2019-02-20T18:08:30.347Z,3.77
2019-02-20T18:11:01.493Z,3.43
2019-02-20T18:13:31.073Z,3.17
2019-02-20T18:16:00.274Z,3.50
2019-02-20T18:18:29.433Z,3.50
2019-02-20T18:20:58.662Z,3.60
2019-02-20T18:23:27.874Z,3.40
2019-02-20T18:25:57.418Z,3.57
2019-02-20T18:28:26.650Z,3.60
2019-02-20T18:30:55.837Z,3.50
2019-02-20T18:33:25.090Z,3.77
2019-02-20T18:35:54.258Z,3.57
2019-02-20T18:38:23.466Z,4.10
2019-02-20T18:40:52.684Z,3.80
2019-02-20T18:43:21.876Z,3.90
2019-02-20T18:45:51.411Z,3.40
2019-02-20T18:48:21.165Z,3.33
2019-02-20T18:50:50.356Z,3.77
2019-02-20T18:53:19.542Z,4.20
2019-02-20T18:55:49.531Z,4.70
2019-02-20T18:58:19.167Z,4.40
2019-02-20T19:00:48.461Z,3.90
2019-02-20T19:03:17.701Z,4.00
2019-02-20T19:05:46.837Z,4.33
2019-02-20T19:08:43.049Z,4.47
2019-02-20T19:11:17.265Z,4.20
2019-02-20T19:14:12.622Z,4.37
2019-02-20T19:17:35.307Z,4.63
2019-02-20T19:20:35.461Z,4.60
2019-02-20T19:23:35.617Z,4.67
2019-02-20T19:26:30.925Z,5.07
2019-02-20T19:29:59.894Z,4.80
2019-02-20T19:32:48.970Z,4.53
2019-02-20T19:36:01.497Z,4.70
2019-02-20T19:39:18.901Z,5.47
2019-02-20T19:42:20.973Z,4.53
2019-02-20T19:45:27.455Z,5.70
2019-02-20T19:48:25.843Z,5.47
2019-02-20T19:51:11.441Z,5.27
2019-02-20T19:54:06.255Z,5.13
2019-02-20T19:57:11.487Z,5.57
2019-02-20T20:00:06.229Z,5.30
2019-02-20T20:03:15.067Z,5.97
2019-02-20T20:06:37.600Z,5.50
2019-02-20T20:10:00.863Z,5.13
2019-02-20T20:12:44.514Z,5.30
2019-02-20T20:16:03.723Z,5.67
2019-02-20T20:19:03.213Z,5.37
2019-02-20T20:22:13.732Z,5.27
2019-02-20T20:25:07.701Z,5.27
2019-02-20T20:28:13.136Z,5.43
2019-02-20T20:31:18.698Z,4.80
2019-02-20T20:34:19.258Z,4.97
2019-02-20T20:37:42.004Z,4.70
2019-02-20T20:40:35.541Z,4.83
2019-02-20T20:43:55.063Z,5.03
2019-02-20T20:47:02.279Z,4.90
2019-02-20T20:50:22.355Z,5.13
2019-02-20T20:53:33.620Z,5.40
2019-02-20T20:56:40.067Z,5.30
2019-02-20T20:59:46.070Z,5.37
2019-02-20T21:02:29.154Z,5.63
2019-02-20T21:05:45.595Z,5.37
2019-02-20T21:08:34.100Z,5.60
2019-02-20T21:11:58.002Z,5.37
2019-02-20T21:14:50.730Z,5.90
2019-02-20T21:17:45.559Z,5.20
2019-02-20T21:20:51.517Z,5.53
2019-02-20T21:23:52.215Z,5.40
2019-02-20T21:27:11.583Z,5.90
2019-02-20T21:30:13.544Z,6.03
2019-02-20T21:33:21.048Z,5.90
2019-02-20T21:36:10.187Z,6.03
2019-02-20T21:39:16.648Z,5.63
2019-02-20T21:42:04.365Z,6.00
2019-02-20T21:44:49.970Z,5.27
2019-02-20T21:47:57.257Z,5.80
2019-02-20T21:50:50.886Z,5.57
2019-02-20T21:54:06.066Z,6.40
2019-02-20T21:57:28.739Z,6.17
2019-02-20T22:00:27.886Z,5.43
2019-02-20T22:03:32.477Z,6.00
2019-02-20T22:06:55.035Z,6.20
2019-02-20T22:10:02.650Z,5.97
2019-02-20T22:12:51.326Z,6.60
2019-02-20T22:15:40.379Z,8.43
2019-02-20T22:19:02.763Z,9.73
2019-02-20T22:22:07.839Z,9.40
2019-02-20T22:25:08.594Z,8.60
2019-02-20T22:28:12.942Z,8.93
2019-02-20T22:31:14.954Z,7.83
2019-02-20T22:34:20.918Z,8.33
2019-02-20T22:37:25.862Z,8.67
2019-02-20T22:40:17.237Z,8.90
2019-02-20T22:43:23.572Z,8.07
2019-02-20T22:46:08.095Z,7.80
2019-02-20T22:49:02.659Z,8.00
2019-02-20T22:52:13.338Z,8.00
2019-02-20T22:55:22.766Z,7.33
2019-02-20T22:58:03.607Z,8.43
2019-02-20T23:01:20.957Z,7.20
2019-02-20T23:04:10.180Z,7.67
2019-02-20T23:06:50.845Z,7.30
2019-02-20T23:09:52.889Z,6.63
2019-02-20T23:12:47.171Z,7.13
2019-02-20T23:15:16.421Z,6.97
2019-02-20T23:17:45.607Z,7.00
2019-02-20T23:20:15.205Z,6.57
2019-02-20T23:22:44.410Z,6.40
2019-02-20T23:25:13.566Z,6.77
2019-02-20T23:27:42.807Z,6.53
2019-02-20T23:30:13.150Z,6.70
2019-02-20T23:32:43.253Z,6.20
2019-02-20T23:35:12.733Z,6.80
2019-02-20T23:37:41.943Z,6.53
2019-02-20T23:40:11.155Z,6.80
2019-02-20T23:42:40.344Z,6.47
2019-02-20T23:45:10.002Z,6.40
2019-02-20T23:47:39.227Z,6.77
2019-02-20T23:50:08.426Z,6.20
2019-02-20T23:52:37.643Z,6.20
2019-02-20T23:55:06.873Z,5.90
2019-02-20T23:57:36.071Z,7.10
